Time;durP1;ratioP1;P1;durP2;ratioP2;P2;SDS_P1;SDS_P2;PMS_P1;PMS_P2;Temp;Humidity;BMP_temperature;BMP_pressure;BME280_temperature;BME280_humidity;BME280_pressure;Samples;Min_cycle;Max_cycle;Signal;HPM_P1;HPM_P2
2021/06/28 00:01:15;;;;;;;3.17;2.88;;;18.90;99.90;;;;;;4190616;28;20572;-62
2021/06/28 00:03:16;;;;;;;4.30;2.88;;;18.90;99.90;;;;;;4189550;28;20963;-62
2021/06/28 00:05:19;;;;;;;4.53;3.55;;;18.90;99.90;;;;;;4190864;28;20037;-62
2021/06/28 00:07:20;;;;;;;3.30;2.72;;;18.80;99.90;;;;;;4189721;28;20274;-61
2021/06/28 00:09:21;;;;;;;4.65;2.70;;;18.80;99.90;;;;;;4190441;28;20055;-62
2021/06/28 00:11:22;;;;;;;5.05;2.70;;;18.80;99.90;;;;;;4189916;28;20086;-61
2021/06/28 00:13:25;;;;;;;4.07;2.72;;;18.70;99.90;;;;;;4190180;28;20032;-62
2021/06/28 00:15:29;;;;;;;6.70;2.75;;;18.70;99.90;;;;;;4190461;28;20044;-63
2021/06/28 00:17:30;;;;;;;2.95;2.50;;;18.60;99.90;;;;;;4190319;28;20358;-63
2021/06/28 00:19:32;;;;;;;4.45;3.53;;;18.60;99.90;;;;;;4190003;28;20625;-61
2021/06/28 00:21:37;;;;;;;4.47;2.88;;;18.60;99.90;;;;;;4189908;28;20439;-63
2021/06/28 00:23:39;;;;;;;2.70;2.50;;;18.60;99.90;;;;;;4189563;28;20134;-63
2021/06/28 00:25:40;;;;;;;2.80;2.53;;;18.60;99.90;;;;;;4189977;28;20028;-62
2021/06/28 00:27:43;;;;;;;2.85;2.65;;;18.60;99.90;;;;;;4190040;28;20058;-62
2021/06/28 00:29:44;;;;;;;4.10;2.55;;;18.60;99.90;;;;;;4189414;28;20373;-61
2021/06/28 00:31:46;;;;;;;3.17;2.55;;;18.50;99.90;;;;;;4191534;28;20134;-62
2021/06/28 00:33:47;;;;;;;4.07;2.40;;;18.50;99.90;;;;;;4191243;28;20048;-62
2021/06/28 00:35:49;;;;;;;4.65;2.35;;;18.50;99.90;;;;;;4190304;28;20057;-62
2021/06/28 00:37:50;;;;;;;4.28;2.80;;;18.50;99.90;;;;;;4188527;28;20110;-62
2021/06/28 00:39:52;;;;;;;7.78;2.95;;;18.50;99.90;;;;;;4189967;28;20090;-62
2021/06/28 00:41:53;;;;;;;2.90;2.60;;;18.50;99.90;;;;;;4189512;28;20062;-62
2021/06/28 00:43:54;;;;;;;3.95;2.70;;;18.50;99.90;;;;;;4189756;28;20354;-62
2021/06/28 00:45:55;;;;;;;2.33;2.13;;;18.50;99.90;;;;;;4189934;28;20048;-62
2021/06/28 00:47:59;;;;;;;5.80;2.80;;;18.50;99.90;;;;;;4190353;28;20048;-61
2021/06/28 00:50:00;;;;;;;2.67;2.40;;;18.40;99.90;;;;;;4189281;28;20029;-61
2021/06/28 00:52:02;;;;;;;5.93;2.95;;;18.40;99.90;;;;;;4189555;28;20032;-62
2021/06/28 00:54:03;;;;;;;3.33;2.55;;;18.40;99.90;;;;;;4188378;28;20036;-61
2021/06/28 00:56:10;;;;;;;4.72;2.80;;;18.40;99.90;;;;;;4189165;28;20473;-61
2021/06/28 00:58:14;;;;;;;3.25;2.42;;;18.40;99.90;;;;;;4189414;28;20496;-62
2021/06/28 01:00:16;;;;;;;4.18;2.72;;;18.30;99.90;;;;;;4189262;28;20045;-64
2021/06/28 01:02:19;;;;;;;3.40;3.10;;;18.30;99.90;;;;;;4189263;28;20102;-62
2021/06/28 01:04:20;;;;;;;2.70;2.20;;;18.30;99.90;;;;;;4189022;28;20046;-62
2021/06/28 01:06:21;;;;;;;4.03;2.42;;;18.20;99.90;;;;;;4189275;28;20093;-63
2021/06/28 01:08:22;;;;;;;6.47;2.67;;;18.20;99.90;;;;;;4189653;28;20527;-62
2021/06/28 01:10:24;;;;;;;2.55;2.25;;;18.20;99.90;;;;;;4189445;28;20036;-62
2021/06/28 01:12:25;;;;;;;2.88;2.45;;;18.20;99.90;;;;;;4188910;28;20427;-61
2021/06/28 01:14:26;;;;;;;3.67;2.83;;;18.20;99.90;;;;;;4189515;28;20075;-63
2021/06/28 01:16:28;;;;;;;4.63;2.78;;;18.20;99.90;;;;;;4189446;28;20040;-62
2021/06/28 01:18:30;;;;;;;3.50;3.00;;;18.10;99.90;;;;;;4189850;28;20105;-62
2021/06/28 01:20:32;;;;;;;4.55;2.70;;;18.20;99.90;;;;;;4189095;28;20465;-62
2021/06/28 01:22:35;;;;;;;3.10;2.70;;;18.10;99.90;;;;;;4188776;28;20074;-62
2021/06/28 01:24:36;;;;;;;4.70;2.60;;;18.10;99.90;;;;;;4189138;28;20083;-62
2021/06/28 01:26:38;;;;;;;3.17;2.85;;;18.10;99.90;;;;;;4188108;28;20484;-62
2021/06/28 01:28:40;;;;;;;3.88;3.08;;;18.10;99.90;;;;;;4188977;28;20040;-61
2021/06/28 01:30:41;;;;;;;4.28;2.55;;;18.10;99.90;;;;;;4189031;28;20137;-63
2021/06/28 01:32:44;;;;;;;3.20;2.90;;;18.00;99.90;;;;;;4189381;28;20032;-63
2021/06/28 01:34:46;;;;;;;3.03;2.72;;;18.00;99.90;;;;;;4188181;28;20071;-62
2021/06/28 01:36:47;;;;;;;4.07;3.15;;;18.00;99.90;;;;;;4188781;28;20032;-61
2021/06/28 01:38:50;;;;;;;4.35;2.83;;;18.00;99.90;;;;;;4188636;28;20078;-62
2021/06/28 01:40:53;;;;;;;9.98;2.60;;;17.90;99.90;;;;;;4189120;28;20415;-63
2021/06/28 01:42:54;;;;;;;6.03;2.53;;;18.00;99.90;;;;;;4188101;28;20040;-62
2021/06/28 01:44:56;;;;;;;5.63;2.90;;;17.90;99.90;;;;;;4189251;28;20028;-62
2021/06/28 01:46:57;;;;;;;3.60;3.28;;;17.90;99.90;;;;;;4188899;28;20101;-62
2021/06/28 01:48:58;;;;;;;3.33;2.90;;;17.90;99.90;;;;;;4189628;28;20028;-62
2021/06/28 01:50:59;;;;;;;4.63;2.85;;;17.90;99.90;;;;;;4188698;28;20091;-62
2021/06/28 01:53:03;;;;;;;4.07;2.33;;;17.90;99.90;;;;;;4188692;28;20032;-62
2021/06/28 01:55:06;;;;;;;3.42;2.92;;;17.90;99.90;;;;;;4188651;28;20055;-61
2021/06/28 01:57:08;;;;;;;3.33;3.00;;;17.80;99.90;;;;;;4188738;28;20101;-62
2021/06/28 01:59:09;;;;;;;3.40;2.40;;;17.80;99.90;;;;;;4187037;28;20102;-62
2021/06/28 02:01:11;;;;;;;4.70;2.80;;;17.80;99.90;;;;;;4188693;28;20512;-62
2021/06/28 02:03:17;;;;;;;3.05;2.40;;;17.80;99.90;;;;;;4191589;28;20090;-62
2021/06/28 02:05:18;;;;;;;6.82;2.53;;;17.80;99.90;;;;;;4192284;28;20056;-62
2021/06/28 02:07:23;;;;;;;4.90;2.85;;;17.80;99.90;;;;;;4192111;28;20028;-62
2021/06/28 02:09:25;;;;;;;3.13;2.30;;;17.80;99.90;;;;;;4191982;28;20451;-62
2021/06/28 02:11:26;;;;;;;3.90;3.20;;;17.80;99.90;;;;;;4192000;28;20028;-62
2021/06/28 02:13:30;;;;;;;3.33;2.97;;;17.80;99.90;;;;;;4191457;28;20434;-62
2021/06/28 02:15:32;;;;;;;3.10;2.80;;;17.80;99.90;;;;;;4192122;28;20036;-62
2021/06/28 02:17:33;;;;;;;2.88;2.40;;;17.80;99.90;;;;;;4192245;28;20040;-63
2021/06/28 02:19:34;;;;;;;4.95;2.85;;;17.80;99.90;;;;;;4192269;28;20743;-62
2021/06/28 02:21:35;;;;;;;8.57;2.80;;;17.80;99.90;;;;;;4191361;28;20049;-62
2021/06/28 02:23:38;;;;;;;4.45;2.70;;;17.80;99.90;;;;;;4192257;28;20294;-61
2021/06/28 02:25:39;;;;;;;4.53;2.47;;;17.80;99.90;;;;;;4191403;28;20540;-62
2021/06/28 02:27:41;;;;;;;3.90;3.00;;;17.80;99.90;;;;;;4191616;28;20447;-62
2021/06/28 02:29:42;;;;;;;3.90;2.92;;;17.80;99.90;;;;;;4191772;28;20500;-62
2021/06/28 02:31:44;;;;;;;2.70;2.47;;;17.80;99.90;;;;;;4191283;28;20082;-61
2021/06/28 02:33:47;;;;;;;5.30;2.70;;;17.80;99.90;;;;;;4191340;28;20032;-61
2021/06/28 02:35:49;;;;;;;4.38;2.97;;;17.90;99.90;;;;;;4191773;28;20049;-61
2021/06/28 02:37:50;;;;;;;4.75;2.58;;;17.90;99.90;;;;;;4191211;28;20548;-62
2021/06/28 02:39:51;;;;;;;4.57;3.05;;;17.90;99.90;;;;;;4191813;28;20070;-63
2021/06/28 02:41:53;;;;;;;4.38;2.65;;;17.90;99.90;;;;;;4191521;28;20040;-61
2021/06/28 02:43:55;;;;;;;3.88;2.85;;;17.80;99.90;;;;;;4191689;28;20067;-61
2021/06/28 02:45:56;;;;;;;3.67;2.60;;;17.90;99.90;;;;;;4191834;28;20106;-61
2021/06/28 02:47:59;;;;;;;4.15;2.92;;;18.00;99.90;;;;;;4191704;28;20078;-62
2021/06/28 02:50:01;;;;;;;5.88;3.60;;;18.10;99.90;;;;;;4191612;28;20082;-61
2021/06/28 02:52:03;;;;;;;2.70;2.50;;;18.10;99.90;;;;;;4191530;28;20826;-61
2021/06/28 02:54:04;;;;;;;4.85;2.80;;;18.20;99.90;;;;;;4191786;28;20435;-61
2021/06/28 02:56:15;;;;;;;3.33;2.90;;;18.40;99.90;;;;;;4190781;28;20036;-61
2021/06/28 02:58:18;;;;;;;4.95;2.95;;;18.60;99.90;;;;;;4191243;28;20032;-60
2021/06/28 03:00:20;;;;;;;4.65;2.60;;;18.80;99.90;;;;;;4190917;28;20074;-61
2021/06/28 03:02:21;;;;;;;3.70;3.25;;;19.10;99.90;;;;;;4191190;28;20431;-61
2021/06/28 03:04:22;;;;;;;3.17;2.75;;;19.30;99.90;;;;;;4190923;28;20045;-61
2021/06/28 03:06:23;;;;;;;2.80;2.60;;;19.50;99.90;;;;;;4191076;28;20444;-61
2021/06/28 03:08:24;;;;;;;6.88;2.83;;;19.70;99.90;;;;;;4191469;28;20028;-61
2021/06/28 03:10:26;;;;;;;3.97;2.80;;;19.80;99.90;;;;;;4191141;28;20040;-62
2021/06/28 03:12:27;;;;;;;5.03;2.40;;;20.00;99.90;;;;;;4191144;28;20982;-61
2021/06/28 03:14:28;;;;;;;3.10;2.67;;;20.10;99.90;;;;;;4190830;28;20082;-62
2021/06/28 03:16:30;;;;;;;3.28;2.42;;;20.30;99.90;;;;;;4190529;28;20446;-61
2021/06/28 03:18:33;;;;;;;2.75;2.50;;;20.50;99.90;;;;;;4191505;28;20090;-62
2021/06/28 03:20:35;;;;;;;3.15;2.10;;;20.70;99.90;;;;;;4189974;28;20036;-61
2021/06/28 03:22:38;;;;;;;2.47;2.17;;;20.90;99.90;;;;;;4190895;28;20033;-61
2021/06/28 03:24:39;;;;;;;6.47;2.50;;;21.00;99.90;;;;;;4190906;28;20105;-61
2021/06/28 03:26:41;;;;;;;2.65;2.17;;;21.40;99.90;;;;;;4190133;28;20098;-62
2021/06/28 03:28:42;;;;;;;3.10;2.15;;;21.70;99.90;;;;;;4190558;28;20037;-61
2021/06/28 03:30:43;;;;;;;4.60;2.53;;;22.00;99.90;;;;;;4189409;28;20036;-63
2021/06/28 03:32:46;;;;;;;5.80;2.63;;;22.40;99.90;;;;;;4190989;28;20484;-61
2021/06/28 03:34:47;;;;;;;3.40;2.38;;;22.60;99.90;;;;;;4190911;28;20102;-62
2021/06/28 03:36:48;;;;;;;2.53;2.30;;;22.70;99.90;;;;;;4190051;28;20439;-62
2021/06/28 03:38:49;;;;;;;4.72;2.60;;;23.00;99.90;;;;;;4189134;28;20098;-62
2021/06/28 03:40:50;;;;;;;5.45;2.40;;;23.00;99.90;;;;;;4173670;28;20374;-63
2021/06/28 03:42:52;;;;;;;3.08;2.22;;;23.20;99.90;;;;;;4174183;28;20041;-61
2021/06/28 03:44:53;;;;;;;3.53;2.35;;;23.40;99.90;;;;;;4174384;28;20099;-62
2021/06/28 03:46:54;;;;;;;2.78;2.45;;;23.50;99.90;;;;;;4174020;28;20021;-61
2021/06/28 03:48:55;;;;;;;3.55;2.60;;;23.60;99.90;;;;;;4174511;28;20091;-62
2021/06/28 03:50:56;;;;;;;4.78;2.08;;;23.90;99.90;;;;;;4174006;28;20029;-62
2021/06/28 03:52:57;;;;;;;2.88;2.33;;;23.90;99.90;;;;;;4173780;28;20094;-62
2021/06/28 03:54:59;;;;;;;2.72;2.45;;;24.10;99.80;;;;;;4173631;28;20395;-61
2021/06/28 03:57:01;;;;;;;2.72;2.00;;;24.20;99.50;;;;;;4173446;28;20036;-61
2021/06/28 03:59:03;;;;;;;2.40;2.20;;;24.60;99.20;;;;;;4188284;28;20086;-61
2021/06/28 04:01:04;;;;;;;3.40;2.50;;;25.00;98.60;;;;;;4189044;28;20098;-60
2021/06/28 04:03:06;;;;;;;3.75;2.40;;;25.40;98.00;;;;;;4190212;28;20025;-60
2021/06/28 04:05:10;;;;;;;4.82;2.40;;;25.80;97.30;;;;;;4189779;28;20077;-60
2021/06/28 04:07:11;;;;;;;2.90;2.33;;;26.20;96.80;;;;;;4190010;28;20021;-61
2021/06/28 04:09:12;;;;;;;2.97;2.20;;;26.60;96.10;;;;;;4190065;28;20028;-60
2021/06/28 04:11:13;;;;;;;3.38;2.25;;;26.90;95.50;;;;;;4189934;28;20082;-60
2021/06/28 04:13:14;;;;;;;4.03;2.20;;;27.00;94.70;;;;;;4189743;28;20480;-67
2021/06/28 04:15:16;;;;;;;5.70;2.35;;;27.00;94.20;;;;;;4189415;28;20033;-63
2021/06/28 04:17:18;;;;;;;3.17;2.25;;;26.60;93.80;;;;;;4189108;28;20550;-61
2021/06/28 04:19:19;;;;;;;5.72;2.03;;;26.30;93.80;;;;;;4189686;28;20097;-62
2021/06/28 04:21:20;;;;;;;6.78;2.35;;;26.10;93.90;;;;;;4189691;28;20485;-62
2021/06/28 04:23:21;;;;;;;2.90;2.40;;;26.10;93.90;;;;;;4188377;28;20040;-62
2021/06/28 04:25:24;;;;;;;2.92;2.28;;;25.90;93.60;;;;;;4189202;28;20094;-62
2021/06/28 04:27:25;;;;;;;5.80;2.20;;;26.10;93.30;;;;;;4189387;28;20028;-61
2021/06/28 04:29:26;;;;;;;5.15;2.00;;;25.90;93.30;;;;;;4189874;28;20388;-63
2021/06/28 04:31:28;;;;;;;2.75;2.40;;;26.10;93.20;;;;;;4188982;28;20625;-60
2021/06/28 04:33:29;;;;;;;6.25;2.33;;;26.50;93.00;;;;;;4188865;28;20032;-62
2021/06/28 04:35:30;;;;;;;6.60;2.25;;;27.30;92.40;;;;;;4188004;28;20461;-62
2021/06/28 04:37:32;;;;;;;5.55;2.20;;;27.60;91.50;;;;;;4188854;28;20765;-63
2021/06/28 04:39:33;;;;;;;2.97;2.20;;;28.00;91.20;;;;;;4188961;28;20770;-62
2021/06/28 04:41:34;;;;;;;2.90;2.20;;;28.60;90.60;;;;;;4189106;28;20086;-62
2021/06/28 04:43:35;;;;;;;4.00;2.55;;;28.70;89.70;;;;;;4189489;28;20442;-61
2021/06/28 04:45:36;;;;;;;4.68;2.33;;;28.80;88.50;;;;;;4189055;28;20113;-61
2021/06/28 04:47:37;;;;;;;4.03;2.17;;;29.10;87.80;;;;;;4187581;28;20036;-62
2021/06/28 04:49:39;;;;;;;4.35;2.30;;;28.70;86.90;;;;;;4189316;28;20098;-61
2021/06/28 04:51:40;;;;;;;4.47;2.42;;;27.70;87.50;;;;;;4189260;28;20106;-61
2021/06/28 04:53:41;;;;;;;4.28;1.83;;;27.40;88.40;;;;;;4188950;28;20838;-62
2021/06/28 04:55:43;;;;;;;6.18;2.58;;;27.20;88.90;;;;;;4189270;28;20032;-62
2021/06/28 04:57:44;;;;;;;6.40;2.28;;;27.90;88.40;;;;;;4189053;28;20106;-62
2021/06/28 04:59:45;;;;;;;3.20;2.00;;;28.20;87.10;;;;;;4189433;28;20028;-64
2021/06/28 05:01:47;;;;;;;2.58;1.67;;;28.60;86.40;;;;;;4188824;28;20417;-64
2021/06/28 05:03:48;;;;;;;3.55;2.08;;;29.20;85.20;;;;;;4189109;28;20438;-62
2021/06/28 05:05:49;;;;;;;4.20;1.73;;;29.50;84.00;;;;;;4188979;28;20109;-61
2021/06/28 05:07:50;;;;;;;3.90;1.77;;;29.60;83.00;;;;;;4188850;28;20029;-61
2021/06/28 05:09:51;;;;;;;3.65;1.98;;;29.70;82.40;;;;;;4188827;28;20452;-62
2021/06/28 05:11:52;;;;;;;4.15;2.17;;;30.00;81.80;;;;;;4188759;28;20089;-61
2021/06/28 05:13:54;;;;;;;2.92;1.90;;;30.30;80.60;;;;;;4188657;28;20082;-62
2021/06/28 05:15:55;;;;;;;2.33;2.13;;;30.60;79.80;;;;;;4188647;28;20032;-61
2021/06/28 05:17:56;;;;;;;4.78;2.20;;;29.80;79.50;;;;;;4189423;28;20113;-61
2021/06/28 05:19:57;;;;;;;2.55;1.88;;;29.70;79.50;;;;;;4188378;28;20090;-61
2021/06/28 05:21:58;;;;;;;5.30;2.22;;;29.30;79.70;;;;;;4188304;28;20496;-61
2021/06/28 05:23:59;;;;;;;3.42;1.95;;;28.60;80.50;;;;;;4188407;28;20037;-62
2021/06/28 05:26:00;;;;;;;6.35;3.55;;;28.60;80.80;;;;;;4188673;28;20028;-61
2021/06/28 05:28:02;;;;;;;3.53;2.10;;;29.30;80.10;;;;;;4188565;28;20029;-61
2021/06/28 05:30:07;;;;;;;2.47;1.70;;;30.00;79.00;;;;;;4188610;28;20669;-62
2021/06/28 05:32:08;;;;;;;5.03;2.13;;;30.70;77.90;;;;;;4188559;28;20129;-62
2021/06/28 05:34:10;;;;;;;3.05;2.10;;;31.20;76.10;;;;;;4188456;28;20028;-62
2021/06/28 05:36:11;;;;;;;6.63;2.67;;;31.60;75.70;;;;;;4187354;28;20480;-62
2021/06/28 05:38:12;;;;;;;6.63;1.77;;;32.00;74.50;;;;;;4188325;28;20094;-62
2021/06/28 05:40:13;;;;;;;3.08;1.75;;;32.30;73.40;;;;;;4188310;28;20089;-62
2021/06/28 05:42:15;;;;;;;3.95;2.10;;;32.30;72.50;;;;;;4188533;28;20041;-61
2021/06/28 05:44:16;;;;;;;4.28;2.30;;;32.30;72.10;;;;;;4187866;28;20071;-62
2021/06/28 05:46:17;;;;;;;3.20;2.05;;;32.40;72.10;;;;;;4188790;28;20044;-62
2021/06/28 05:48:18;;;;;;;4.00;2.25;;;32.60;71.70;;;;;;4187423;28;20040;-62
2021/06/28 05:50:21;;;;;;;3.47;2.13;;;32.80;70.90;;;;;;4188764;28;20160;-62
2021/06/28 05:52:22;;;;;;;2.35;1.92;;;33.10;70.10;;;;;;4188541;28;20082;-62
2021/06/28 05:54:23;;;;;;;4.28;1.95;;;33.20;69.70;;;;;;4188353;28;20028;-62
2021/06/28 05:56:24;;;;;;;4.05;1.98;;;33.50;69.30;;;;;;4188401;28;20041;-61
2021/06/28 05:58:29;;;;;;;2.33;2.15;;;33.70;68.50;;;;;;4187737;28;20106;-61
2021/06/28 06:00:30;;;;;;;4.22;1.63;;;33.90;68.10;;;;;;4187930;28;20488;-61
2021/06/28 06:02:31;;;;;;;3.38;2.03;;;34.00;67.50;;;;;;4187803;28;20052;-61
2021/06/28 06:04:32;;;;;;;4.93;1.90;;;34.20;66.70;;;;;;4188457;28;20837;-61
2021/06/28 06:06:34;;;;;;;3.42;1.90;;;34.40;66.00;;;;;;4187977;28;20661;-61
2021/06/28 06:08:35;;;;;;;7.18;2.58;;;34.50;65.70;;;;;;4188583;28;20070;-61
2021/06/28 06:10:36;;;;;;;3.38;1.88;;;34.10;64.80;;;;;;4188414;28;20029;-61
2021/06/28 06:12:38;;;;;;;5.22;2.40;;;33.60;65.40;;;;;;4188266;28;20045;-61
2021/06/28 06:14:39;;;;;;;4.35;2.05;;;33.60;65.40;;;;;;4188166;28;20040;-60
2021/06/28 06:16:40;;;;;;;3.65;2.00;;;33.80;64.90;;;;;;4188162;28;20081;-60
2021/06/28 06:18:41;;;;;;;2.90;1.67;;;34.10;64.20;;;;;;4188474;28;20037;-61
2021/06/28 06:20:44;;;;;;;2.05;1.83;;;34.40;63.50;;;;;;4188039;28;20036;-61
2021/06/28 06:22:45;;;;;;;3.42;1.50;;;34.60;62.90;;;;;;4187999;28;20050;-61
2021/06/28 06:24:46;;;;;;;4.53;1.50;;;34.40;62.30;;;;;;4188292;28;20025;-61
2021/06/28 06:26:47;;;;;;;4.18;1.90;;;34.20;62.10;;;;;;4188487;28;20089;-61
2021/06/28 06:28:48;;;;;;;1.60;1.50;;;33.60;62.50;;;;;;4187925;28;20459;-61
2021/06/28 06:30:49;;;;;;;3.67;1.80;;;33.20;62.40;;;;;;4188244;28;20079;-61
2021/06/28 06:32:51;;;;;;;3.00;1.75;;;33.20;63.00;;;;;;4187098;28;20046;-62
2021/06/28 06:34:52;;;;;;;3.88;2.22;;;33.50;62.70;;;;;;4188499;28;20125;-61
2021/06/28 06:36:53;;;;;;;1.70;1.60;;;33.80;62.20;;;;;;4186288;28;20040;-61
2021/06/28 06:38:54;;;;;;;3.38;1.55;;;34.00;62.20;;;;;;4188301;28;20086;-62
2021/06/28 06:40:56;;;;;;;3.33;1.65;;;33.90;61.70;;;;;;4187587;28;20040;-61
2021/06/28 06:42:57;;;;;;;2.83;1.55;;;34.00;61.80;;;;;;4187342;28;20098;-60
2021/06/28 06:45:05;;;;;;;1.67;1.52;;;33.80;61.60;;;;;;4188123;28;20477;-61
2021/06/28 06:47:06;;;;;;;2.75;1.67;;;33.70;62.00;;;;;;4188058;28;20036;-61
2021/06/28 06:49:07;;;;;;;4.60;1.63;;;33.50;61.90;;;;;;4190059;28;20489;-60
2021/06/28 06:51:08;;;;;;;3.42;2.10;;;33.40;62.10;;;;;;4190126;28;20082;-61
2021/06/28 06:53:09;;;;;;;2.92;1.92;;;33.10;63.20;;;;;;4190606;28;20429;-61
2021/06/28 06:55:11;;;;;;;2.63;1.65;;;32.40;64.10;;;;;;4188732;28;20089;-61
2021/06/28 06:57:14;;;;;;;3.38;2.10;;;32.00;65.10;;;;;;4191066;28;20055;-60
2021/06/28 06:59:15;;;;;;;2.70;1.58;;;32.00;64.80;;;;;;4190925;28;20032;-61
2021/06/28 07:01:17;;;;;;;1.95;1.85;;;31.50;65.30;;;;;;4190872;28;20032;-60
2021/06/28 07:03:18;;;;;;;4.18;1.92;;;31.50;65.70;;;;;;4190443;28;20864;-61
2021/06/28 07:05:19;;;;;;;1.50;1.38;;;31.40;66.00;;;;;;4191027;28;20025;-61
2021/06/28 07:07:20;;;;;;;4.65;1.70;;;31.30;65.90;;;;;;4190515;28;20024;-61
2021/06/28 07:09:22;;;;;;;4.47;1.95;;;31.50;66.30;;;;;;4191070;28;20029;-61
2021/06/28 07:11:25;;;;;;;3.00;2.08;;;31.50;66.30;;;;;;4189742;28;20101;-61
2021/06/28 07:13:26;;;;;;;5.20;1.95;;;31.70;66.30;;;;;;4191056;28;20036;-61
2021/06/28 07:15:27;;;;;;;3.97;1.75;;;31.90;66.10;;;;;;4190518;28;20048;-61
2021/06/28 07:17:28;;;;;;;6.40;1.65;;;31.90;66.10;;;;;;4191050;28;20813;-61
2021/06/28 07:19:29;;;;;;;5.30;2.00;;;31.90;65.80;;;;;;4189115;28;20118;-61
2021/06/28 07:21:34;;;;;;;3.75;2.03;;;31.70;65.40;;;;;;4190422;28;20622;-61
2021/06/28 07:23:36;;;;;;;3.65;1.90;;;31.30;64.90;;;;;;4190242;28;20476;-61
2021/06/28 07:25:37;;;;;;;4.07;1.45;;;30.90;65.30;;;;;;4190396;28;20048;-61
2021/06/28 07:27:39;;;;;;;4.25;1.92;;;30.70;65.60;;;;;;4190895;28;20087;-61
2021/06/28 07:29:41;;;;;;;6.22;2.20;;;30.60;65.50;;;;;;4190234;28;20062;-61
2021/06/28 07:31:42;;;;;;;3.00;1.77;;;30.80;66.00;;;;;;4189799;28;20563;-60
2021/06/28 07:33:43;;;;;;;4.40;2.08;;;31.00;64.90;;;;;;4190623;28;20025;-61
2021/06/28 07:35:44;;;;;;;1.95;1.63;;;31.30;64.70;;;;;;4190174;28;20021;-60
2021/06/28 07:37:46;;;;;;;2.45;1.70;;;31.40;64.90;;;;;;4189628;28;20091;-60
2021/06/28 07:39:48;;;;;;;5.32;3.03;;;31.20;65.40;;;;;;4190328;28;20029;-61
2021/06/28 07:41:52;;;;;;;2.67;1.90;;;31.10;65.40;;;;;;4189320;28;20132;-60
2021/06/28 07:43:54;;;;;;;3.42;1.58;;;30.80;65.00;;;;;;4190549;28;20497;-60
2021/06/28 07:45:55;;;;;;;6.80;2.13;;;30.30;65.00;;;;;;4189702;28;20040;-60
2021/06/28 07:47:58;;;;;;;4.75;2.20;;;30.10;65.30;;;;;;4190493;28;20550;-64
2021/06/28 07:49:59;;;;;;;3.85;1.90;;;29.90;65.60;;;;;;4190309;28;20067;-62
2021/06/28 07:52:00;;;;;;;6.18;2.30;;;29.60;66.00;;;;;;4189849;28;20093;-61
2021/06/28 07:54:06;;;;;;;4.95;2.30;;;29.70;66.20;;;;;;4189980;28;20044;-62
2021/06/28 07:56:19;;;;;;;4.93;2.15;;;30.00;66.30;;;;;;4189878;28;20074;-62
2021/06/28 07:58:21;;;;;;;2.28;1.75;;;30.30;66.40;;;;;;4190043;28;20057;-61
2021/06/28 08:00:22;;;;;;;4.43;1.98;;;30.40;65.60;;;;;;4189202;28;20029;-61
2021/06/28 08:02:23;;;;;;;2.67;2.28;;;30.20;65.40;;;;;;4190167;28;20098;-61
2021/06/28 08:04:27;;;;;;;7.75;2.45;;;29.90;65.40;;;;;;4189576;28;20020;-61
2021/06/28 08:06:28;;;;;;;7.15;2.53;;;29.80;65.90;;;;;;4189797;28;20102;-61
2021/06/28 08:08:29;;;;;;;7.60;2.10;;;29.60;65.70;;;;;;4190089;28;20025;-63
2021/06/28 08:10:32;;;;;;;4.65;2.00;;;29.80;65.70;;;;;;4190213;28;20082;-60
2021/06/28 08:12:34;;;;;;;3.20;1.52;;;30.20;65.20;;;;;;4189688;28;20445;-60
2021/06/28 08:14:35;;;;;;;2.58;2.00;;;30.60;64.80;;;;;;4190252;28;20051;-61
2021/06/28 08:16:36;;;;;;;6.47;2.40;;;30.90;64.60;;;;;;4189691;28;20028;-61
2021/06/28 08:18:38;;;;;;;4.20;2.05;;;30.90;64.20;;;;;;4189760;28;20041;-61
2021/06/28 08:20:39;;;;;;;5.13;1.88;;;30.60;63.90;;;;;;4189171;28;20090;-60
2021/06/28 08:22:40;;;;;;;3.13;1.60;;;30.20;64.60;;;;;;4189552;28;20182;-61
2021/06/28 08:24:42;;;;;;;8.52;2.60;;;30.40;64.80;;;;;;4189479;28;20094;-60
2021/06/28 08:26:45;;;;;;;9.73;2.70;;;30.60;64.80;;;;;;4189542;28;20101;-61
2021/06/28 08:28:46;;;;;;;8.52;3.13;;;30.10;66.40;;;;;;4189108;28;20542;-61
2021/06/28 08:30:47;;;;;;;3.83;2.22;;;29.60;66.60;;;;;;4188826;28;20040;-61
2021/06/28 08:32:49;;;;;;;9.25;2.10;;;29.30;66.30;;;;;;4188982;28;20155;-61
2021/06/28 08:34:53;;;;;;;3.92;1.80;;;29.50;65.00;;;;;;4189289;28;20024;-61
2021/06/28 08:36:54;;;;;;;4.32;1.58;;;29.50;63.90;;;;;;4189496;28;20053;-61
2021/06/28 08:38:57;;;;;;;2.72;1.92;;;29.60;63.70;;;;;;4187818;28;20086;-61
2021/06/28 08:40:58;;;;;;;6.30;3.53;;;29.60;64.50;;;;;;4189347;28;20048;-62
2021/06/28 08:42:59;;;;;;;4.93;3.08;;;29.60;65.80;;;;;;4189072;28;20020;-61
2021/06/28 08:45:01;;;;;;;6.22;3.20;;;29.40;67.20;;;;;;4189258;28;20146;-61
2021/06/28 08:47:05;;;;;;;5.60;2.97;;;29.30;68.20;;;;;;4188475;28;20439;-61
2021/06/28 08:49:09;;;;;;;11.38;3.38;;;29.10;68.90;;;;;;4189572;28;20029;-61
2021/06/28 08:51:12;;;;;;;5.68;3.47;;;28.70;69.60;;;;;;4188229;28;20036;-61
2021/06/28 08:53:15;;;;;;;7.85;3.03;;;28.20;71.30;;;;;;4189029;28;20129;-62
2021/06/28 08:55:16;;;;;;;6.55;3.78;;;28.10;71.80;;;;;;4188750;28;20033;-61
2021/06/28 08:57:18;;;;;;;6.35;3.13;;;28.10;71.70;;;;;;4189290;28;20024;-62
2021/06/28 08:59:19;;;;;;;6.18;2.80;;;28.20;71.90;;;;;;4188938;28;20025;-61
2021/06/28 09:01:20;;;;;;;5.90;2.60;;;28.10;72.20;;;;;;4189195;28;20033;-61
2021/06/28 09:03:21;;;;;;;7.15;2.63;;;28.20;72.10;;;;;;4188996;28;20840;-61
2021/06/28 09:05:23;;;;;;;6.80;2.90;;;27.80;72.90;;;;;;4188408;28;20040;-61
2021/06/28 09:07:24;;;;;;;4.30;2.63;;;27.40;73.60;;;;;;4188722;28;20063;-61
2021/06/28 09:09:35;;;;;;;3.42;3.13;;;27.40;74.10;;;;;;4188897;28;20094;-61
2021/06/28 09:11:47;;;;;;;4.95;2.55;;;27.30;74.40;;;;;;4188138;28;20090;-61
2021/06/28 09:13:50;;;;;;;3.40;2.72;;;27.20;74.10;;;;;;4188423;28;20040;-61
2021/06/28 09:15:52;;;;;;;4.47;2.58;;;27.10;74.20;;;;;;4188536;28;20423;-61
2021/06/28 09:17:53;;;;;;;4.13;2.70;;;27.00;73.90;;;;;;4188924;28;20581;-61
2021/06/28 09:20:13;;;;;;;5.03;3.42;;;27.10;73.80;;;;;;4189020;28;20024;-61
2021/06/28 09:22:28;;;;;;;2.67;2.47;;;27.40;73.10;;;;;;4188618;28;20094;-61
2021/06/28 09:24:40;;;;;;;3.97;2.22;;;27.80;72.80;;;;;;4188437;28;20032;-61
2021/06/28 09:26:41;;;;;;;5.85;2.90;;;28.20;72.00;;;;;;4188805;28;20041;-61
2021/06/28 09:28:47;;;;;;;4.63;2.83;;;28.40;72.30;;;;;;4188843;28;20548;-61
2021/06/28 09:30:54;;;;;;;5.60;2.97;;;28.40;73.20;;;;;;4188334;28;20094;-61
2021/06/28 09:33:00;;;;;;;4.68;2.65;;;28.10;73.70;;;;;;4188668;28;20060;-61
2021/06/28 09:35:01;;;;;;;3.22;2.50;;;27.70;74.40;;;;;;4188278;28;20058;-62
2021/06/28 09:37:04;;;;;;;5.10;2.60;;;27.60;74.50;;;;;;4188641;28;20078;-61
2021/06/28 09:39:24;;;;;;;6.30;2.70;;;27.50;75.00;;;;;;4188267;28;20025;-61
2021/06/28 09:41:31;;;;;;;4.82;2.40;;;27.30;75.70;;;;;;4188440;28;20415;-61
2021/06/28 09:43:32;;;;;;;2.30;2.10;;;27.20;75.10;;;;;;4187702;28;20078;-61
2021/06/28 09:45:40;;;;;;;2.45;2.25;;;27.30;75.10;;;;;;4187904;28;20029;-61
2021/06/28 09:47:41;;;;;;;3.95;2.03;;;27.20;75.00;;;;;;4188171;28;20489;-62
2021/06/28 09:50:00;;;;;;;4.32;2.40;;;27.30;74.80;;;;;;4188669;28;20841;-62
2021/06/28 09:52:03;;;;;;;4.15;2.80;;;27.30;74.80;;;;;;4187992;28;20458;-61
2021/06/28 09:54:07;;;;;;;3.38;2.30;;;27.70;74.40;;;;;;4188621;28;20028;-61
2021/06/28 09:56:37;;;;;;;4.75;2.60;;;28.00;73.70;;;;;;4188258;28;20619;-61
2021/06/28 09:58:38;;;;;;;2.25;2.05;;;28.10;71.90;;;;;;4188389;28;20020;-61
2021/06/28 10:00:51;;;;;;;7.07;2.58;;;28.30;72.30;;;;;;4188184;28;20041;-61
2021/06/28 10:02:52;;;;;;;4.22;2.38;;;28.50;71.40;;;;;;4186547;28;20048;-61
2021/06/28 10:05:35;;;;;;;4.50;2.50;;;28.70;70.30;;;;;;4187894;28;20028;-61
2021/06/28 10:07:35;;;;;;;2.00;1.90;;;29.00;69.10;;;;;;4186202;28;20040;-61
2021/06/28 10:09:37;;;;;;;9.55;3.00;;;29.10;70.50;;;;;;4188188;28;20542;-61
2021/06/28 10:11:45;;;;;;;3.30;2.00;;;29.00;70.50;;;;;;4188139;28;20021;-61
2021/06/28 10:13:59;;;;;;;2.92;2.58;;;29.00;70.70;;;;;;4187811;28;20070;-61
2021/06/28 10:16:00;;;;;;;2.83;2.22;;;29.20;67.60;;;;;;4187904;28;20028;-62
2021/06/28 10:18:04;;;;;;;3.97;2.13;;;29.50;68.60;;;;;;4187926;28;20033;-61
2021/06/28 10:20:10;;;;;;;4.07;2.35;;;29.60;67.70;;;;;;4188455;28;20025;-62
2021/06/28 10:22:12;;;;;;;3.65;3.25;;;29.60;66.20;;;;;;4187650;28;20595;-61
2021/06/28 10:24:13;;;;;;;2.95;2.67;;;29.50;66.70;;;;;;4190212;28;20069;-61
2021/06/28 10:26:14;;;;;;;2.85;2.10;;;29.00;66.20;;;;;;4190474;28;20044;-61
2021/06/28 10:28:16;;;;;;;3.42;2.78;;;28.80;66.40;;;;;;4191968;28;20036;-61
2021/06/28 10:30:20;;;;;;;11.75;3.42;;;28.70;66.50;;;;;;4190911;28;20094;-61
2021/06/28 10:32:22;;;;;;;7.60;2.65;;;28.90;66.30;;;;;;4191757;28;20032;-61
2021/06/28 10:34:23;;;;;;;7.68;2.40;;;29.00;65.80;;;;;;4190846;28;20553;-61
2021/06/28 10:36:36;;;;;;;4.22;2.17;;;29.10;66.20;;;;;;4190991;28;20032;-61
2021/06/28 10:38:57;;;;;;;6.32;3.40;;;29.30;66.10;;;;;;4191093;28;20520;-61